Time;durP1;ratioP1;P1;durP2;ratioP2;P2;SDS_P1;SDS_P2;PMS_P1;PMS_P2;Temp;Humidity;BMP_temperature;BMP_pressure;BME280_temperature;BME280_humidity;BME280_pressure;Samples;Min_cycle;Max_cycle;Signal;HPM_P1;HPM_P2
2022/09/10 00:01:41;;;;;;;3.23;2.07;;;;;;;16.41;78.42;99749.25;5115157;28;20946;-63
2022/09/10 00:04:10;;;;;;;4.83;3.03;;;;;;;16.29;78.73;99748.91;5101552;28;20530;-63
2022/09/10 00:06:37;;;;;;;2.93;2.40;;;;;;;16.32;78.61;99742.31;5101280;28;20642;-63
2022/09/10 00:09:05;;;;;;;3.20;2.27;;;;;;;16.06;79.52;99743.66;5115164;28;20448;-63
2022/09/10 00:11:31;;;;;;;4.47;2.73;;;;;;;16.23;79.00;99738.88;5103444;28;20501;-63
2022/09/10 00:13:58;;;;;;;4.30;2.27;;;;;;;16.29;78.67;99743.50;5113193;28;20502;-63
2022/09/10 00:16:26;;;;;;;4.73;2.77;;;;;;;16.32;78.53;99748.53;5100288;28;20513;-64
2022/09/10 00:18:56;;;;;;;6.10;3.10;;;;;;;16.28;78.91;99744.50;5108400;28;20448;-63
2022/09/10 00:21:23;;;;;;;2.93;2.33;;;;;;;16.32;78.71;99745.00;5115165;28;20469;-64
2022/09/10 00:23:50;;;;;;;3.93;2.63;;;;;;;16.25;79.22;99752.16;5102262;28;20862;-64
2022/09/10 00:26:20;;;;;;;3.50;3.10;;;;;;;16.32;79.04;99745.00;5100981;28;20505;-64
2022/09/10 00:28:47;;;;;;;5.90;3.40;;;;;;;16.27;78.99;99745.56;5101713;28;20483;-64
2022/09/10 00:31:14;;;;;;;3.20;2.80;;;;;;;16.37;78.58;99751.50;5107921;28;20475;-64
2022/09/10 00:33:41;;;;;;;3.83;3.00;;;;;;;16.53;78.05;99750.41;5108819;28;20471;-64
2022/09/10 00:36:15;;;;;;;4.97;2.67;;;;;;;16.53;78.00;99754.97;5110743;28;20980;-64
2022/09/10 00:38:45;;;;;;;2.77;2.30;;;;;;;16.37;78.62;99754.19;5120701;28;20473;-64
2022/09/10 00:41:13;;;;;;;4.00;3.20;;;;;;;16.35;78.88;99756.25;5121376;28;20477;-63
2022/09/10 00:43:48;;;;;;;5.03;2.87;;;;;;;16.53;78.31;99757.69;5120948;28;20490;-63
2022/09/10 00:46:18;;;;;;;5.53;3.27;;;;;;;16.63;77.67;99755.50;5103829;28;20996;-64
2022/09/10 00:48:45;;;;;;;6.47;3.73;;;;;;;16.53;77.96;99763.06;5108116;28;20486;-64
2022/09/10 00:51:11;;;;;;;3.57;3.27;;;;;;;16.44;78.15;99764.19;5100637;28;20483;-65
2022/09/10 00:53:39;;;;;;;5.20;3.27;;;;;;;16.55;78.21;99777.22;5118402;28;20449;-64
2022/09/10 00:56:06;;;;;;;5.30;3.70;;;;;;;16.53;78.10;99766.59;5120741;28;20478;-64
2022/09/10 00:58:33;;;;;;;5.93;3.00;;;;;;;16.42;78.52;99769.78;5111498;28;20474;-64
2022/09/10 01:01:01;;;;;;;5.27;3.20;;;;;;;16.62;77.96;99770.00;5096651;28;20498;-64
2022/09/10 01:03:28;;;;;;;5.63;2.90;;;;;;;16.66;77.72;99773.16;5096524;28;20788;-64
2022/09/10 01:05:57;;;;;;;5.37;3.40;;;;;;;16.70;77.67;99767.19;5112920;28;20473;-63
2022/09/10 01:08:23;;;;;;;4.97;2.80;;;;;;;16.71;77.25;99765.31;5104578;28;20542;-64
2022/09/10 01:11:02;;;;;;;4.07;2.67;;;;;;;16.68;77.50;99780.06;5100434;28;20494;-63
2022/09/10 01:13:36;;;;;;;3.97;3.00;;;;;;;16.67;77.54;99774.84;5110590;28;20516;-64
2022/09/10 01:16:11;;;;;;;5.13;3.20;;;;;;;16.83;76.99;99779.16;5099948;28;20517;-64
2022/09/10 01:18:46;;;;;;;7.40;3.00;;;;;;;16.67;77.52;99769.44;5086895;28;20522;-64
2022/09/10 01:21:18;;;;;;;5.90;3.50;;;;;;;16.74;77.56;99781.97;5100191;28;20475;-64
2022/09/10 01:24:21;;;;;;;7.30;3.30;;;;;;;16.72;77.30;99778.63;5114121;28;20439;-64
2022/09/10 01:27:14;;;;;;;6.90;3.53;;;;;;;16.86;76.84;99781.50;5120763;28;20469;-64
2022/09/10 01:29:46;;;;;;;4.13;3.27;;;;;;;16.70;77.17;99782.53;5079519;28;20514;-64
2022/09/10 01:32:14;;;;;;;6.20;3.87;;;;;;;16.85;76.98;99787.91;5079569;28;20574;-64
2022/09/10 01:34:45;;;;;;;4.80;3.87;;;;;;;16.60;77.91;99784.75;5084498;28;20578;-64
2022/09/10 01:37:16;;;;;;;5.20;3.57;;;;;;;16.63;77.93;99785.19;5100125;28;20473;-64
2022/09/10 01:39:43;;;;;;;6.83;4.40;;;;;;;16.64;77.70;99794.94;5101803;28;20527;-64
2022/09/10 01:42:10;;;;;;;5.63;4.57;;;;;;;16.55;78.15;99790.69;5105814;28;20558;-63
2022/09/10 01:44:48;;;;;;;8.20;3.83;;;;;;;16.56;78.05;99779.72;5107042;28;20508;-64
2022/09/10 01:47:26;;;;;;;7.50;4.70;;;;;;;16.46;78.38;99783.75;5105658;28;20512;-64
2022/09/10 01:50:21;;;;;;;5.23;4.00;;;;;;;16.51;78.31;99784.03;5111855;28;20718;-64
2022/09/10 01:52:57;;;;;;;4.70;3.60;;;;;;;16.63;78.08;99777.09;5116107;28;20470;-64
2022/09/10 01:55:34;;;;;;;4.50;4.07;;;;;;;16.56;78.23;99774.31;5117802;28;20438;-64
2022/09/10 01:58:09;;;;;;;7.60;4.40;;;;;;;16.53;78.36;99777.41;5124839;28;20464;-64
2022/09/10 02:00:38;;;;;;;5.60;4.43;;;;;;;16.48;78.66;99777.13;5124284;28;20481;-64
2022/09/10 02:03:10;;;;;;;5.90;4.17;;;;;;;16.54;78.05;99779.06;5118423;28;20475;-64
2022/09/10 02:05:38;;;;;;;4.43;4.03;;;;;;;16.50;78.48;99783.16;5103744;28;20470;-64
2022/09/10 02:08:07;;;;;;;5.60;4.23;;;;;;;16.51;78.62;99773.22;5102177;28;20447;-64
2022/09/10 02:10:34;;;;;;;4.73;3.70;;;;;;;16.65;78.03;99769.63;5117344;28;20909;-64
2022/09/10 02:13:01;;;;;;;4.67;3.87;;;;;;;16.53;78.01;99776.56;5122852;28;20985;-63
2022/09/10 02:15:28;;;;;;;6.00;4.10;;;;;;;16.55;78.02;99772.63;5088908;28;20490;-64
2022/09/10 02:17:57;;;;;;;6.90;4.40;;;;;;;16.56;78.42;99766.22;5103011;28;20451;-64
2022/09/10 02:20:24;;;;;;;9.93;4.93;;;;;;;16.55;78.31;99763.72;5103938;28;20443;-64
2022/09/10 02:22:52;;;;;;;7.80;5.00;;;;;;;16.52;78.09;99767.63;5100278;28;20542;-64
2022/09/10 02:25:20;;;;;;;6.27;5.17;;;;;;;16.57;78.00;99767.88;5091926;28;20502;-64
2022/09/10 02:27:47;;;;;;;5.57;4.00;;;;;;;16.62;77.93;99774.59;5123037;28;20436;-65
2022/09/10 02:30:14;;;;;;;7.67;4.30;;;;;;;16.64;77.53;99769.81;5104879;28;20446;-64
2022/09/10 02:32:41;;;;;;;6.90;4.40;;;;;;;16.55;78.30;99779.91;5103646;28;20455;-64
2022/09/10 02:35:09;;;;;;;5.20;3.80;;;;;;;16.59;78.10;99772.25;5103712;28;20443;-64
2022/09/10 02:37:36;;;;;;;6.33;4.13;;;;;;;16.49;78.35;99770.72;5103802;28;20427;-64
2022/09/10 02:40:04;;;;;;;6.13;4.83;;;;;;;16.51;78.24;99775.94;5107660;28;20486;-63
2022/09/10 02:42:32;;;;;;;7.10;4.80;;;;;;;16.55;78.23;99767.25;5123454;28;20501;-64
2022/09/10 02:44:59;;;;;;;8.97;5.47;;;;;;;16.52;78.35;99773.00;5107857;28;20494;-64
2022/09/10 02:47:25;;;;;;;5.10;4.53;;;;;;;16.60;78.02;99774.78;5102205;28;21011;-64
2022/09/10 02:49:52;;;;;;;7.63;5.10;;;;;;;16.42;78.63;99769.78;5104357;28;20465;-65
2022/09/10 02:52:20;;;;;;;11.37;5.10;;;;;;;16.37;79.19;99775.78;5103491;28;20502;-64
2022/09/10 02:54:47;;;;;;;5.37;4.27;;;;;;;16.54;78.51;99773.69;5118677;28;20442;-64
2022/09/10 02:57:14;;;;;;;9.67;4.97;;;;;;;16.56;78.39;99771.63;5114904;28;20496;-64
2022/09/10 02:59:41;;;;;;;10.17;4.40;;;;;;;16.53;78.10;99772.00;5122394;28;20517;-64
2022/09/10 03:02:08;;;;;;;8.17;4.60;;;;;;;16.53;78.30;99766.59;5121179;28;20499;-63
2022/09/10 03:04:35;;;;;;;7.00;4.90;;;;;;;16.43;78.56;99774.16;5099401;28;20479;-64
2022/09/10 03:07:01;;;;;;;5.17;4.40;;;;;;;16.59;78.10;99769.56;5095336;28;20503;-64
2022/09/10 03:09:29;;;;;;;7.53;4.17;;;;;;;16.38;78.81;99763.09;5099456;28;20953;-64
2022/09/10 03:11:56;;;;;;;9.10;4.70;;;;;;;16.42;78.87;99767.09;5104141;28;20502;-64
2022/09/10 03:14:24;;;;;;;7.17;4.23;;;;;;;16.39;78.62;99764.78;5103394;28;20686;-63
2022/09/10 03:16:51;;;;;;;9.20;3.97;;;;;;;16.41;78.80;99770.00;5106257;28;20506;-63
2022/09/10 03:19:18;;;;;;;10.53;4.30;;;;;;;16.37;79.25;99753.34;5102740;28;20454;-64
2022/09/10 03:21:46;;;;;;;5.10;3.20;;;;;;;16.54;78.16;99760.19;5103040;28;20543;-64
2022/09/10 03:24:13;;;;;;;6.63;4.20;;;;;;;16.43;78.38;99755.28;5113067;28;20447;-63
2022/09/10 03:26:42;;;;;;;6.73;3.30;;;;;;;16.43;78.47;99763.38;5122452;28;20497;-63
2022/09/10 03:29:08;;;;;;;6.90;3.00;;;;;;;16.56;77.59;99760.81;5108723;28;20434;-64
2022/09/10 03:31:35;;;;;;;4.73;3.10;;;;;;;16.48;77.95;99766.34;5120108;28;20486;-64
2022/09/10 03:34:02;;;;;;;7.03;3.13;;;;;;;16.50;77.91;99763.44;5109793;28;20675;-64
2022/09/10 03:36:30;;;;;;;6.73;2.80;;;;;;;16.50;78.05;99753.47;5110210;28;20543;-64
2022/09/10 03:38:57;;;;;;;4.87;3.00;;;;;;;16.32;78.05;99753.91;5114226;28;20443;-64
2022/09/10 03:41:23;;;;;;;6.40;3.70;;;;;;;16.19;78.97;99759.16;5102825;28;20514;-63
2022/09/10 03:43:52;;;;;;;4.03;2.57;;;;;;;16.25;78.78;99771.91;5094526;28;20510;-63
2022/09/10 03:46:18;;;;;;;4.77;2.50;;;;;;;16.18;78.64;99758.31;5102556;28;20581;-63
2022/09/10 03:48:45;;;;;;;4.90;2.90;;;;;;;15.92;79.70;99761.53;5102969;28;20501;-64
2022/09/10 03:51:12;;;;;;;4.80;3.20;;;;;;;16.00;79.55;99758.75;5102063;28;20471;-63
2022/09/10 03:53:39;;;;;;;3.33;3.00;;;;;;;16.13;79.12;99766.16;5102549;28;20454;-64
2022/09/10 03:56:08;;;;;;;6.20;3.30;;;;;;;16.09;79.51;99766.69;5115348;28;20469;-63
2022/09/10 03:58:35;;;;;;;3.73;2.47;;;;;;;16.02;79.76;99768.47;5114169;28;20450;-63
2022/09/10 04:01:03;;;;;;;7.80;3.17;;;;;;;16.06;79.26;99776.03;5100407;28;20474;-63
2022/09/10 04:03:30;;;;;;;2.97;2.77;;;;;;;15.88;79.42;99781.78;5101794;28;20482;-62
2022/09/10 04:05:57;;;;;;;6.50;2.90;;;;;;;15.78;80.08;99767.78;5113764;28;20494;-62
2022/09/10 04:08:24;;;;;;;4.27;2.97;;;;;;;15.72;80.23;99780.09;5113958;28;20443;-63
2022/09/10 04:10:50;;;;;;;5.73;3.07;;;;;;;15.75;80.04;99785.13;5101787;28;20500;-63
2022/09/10 04:13:17;;;;;;;4.30;2.93;;;;;;;15.76;80.05;99778.75;5101191;28;20494;-63
2022/09/10 04:15:45;;;;;;;6.27;3.40;;;;;;;15.73;79.93;99794.41;5096345;28;20488;-63
2022/09/10 04:18:13;;;;;;;6.20;3.27;;;;;;;15.76;79.52;99786.81;5119873;28;20451;-63
2022/09/10 04:20:41;;;;;;;4.40;3.13;;;;;;;15.59;80.41;99790.69;5115848;28;20497;-64
2022/09/10 04:23:07;;;;;;;9.10;3.27;;;;;;;15.63;79.81;99786.59;5101500;28;20458;-63
2022/09/10 04:25:34;;;;;;;5.23;3.57;;;;;;;15.51;80.27;99796.16;5102761;28;20468;-64
2022/09/10 04:28:01;;;;;;;5.83;3.53;;;;;;;15.50;80.18;99789.06;5116992;28;20485;-64
2022/09/10 04:30:28;;;;;;;4.13;3.03;;;;;;;15.50;80.50;99787.25;5109509;28;20458;-64
2022/09/10 04:32:55;;;;;;;11.10;3.67;;;;;;;15.61;79.79;99794.84;5121534;28;20451;-63
2022/09/10 04:35:23;;;;;;;10.00;3.27;;;;;;;15.52;80.27;99797.81;5121538;28;20459;-63
2022/09/10 04:37:49;;;;;;;6.97;3.40;;;;;;;15.49;80.38;99796.34;5121589;28;20462;-63
2022/09/10 04:40:16;;;;;;;6.70;4.60;;;;;;;15.40;80.59;99797.44;5118601;28;20462;-64
2022/09/10 04:42:43;;;;;;;4.77;3.90;;;;;;;15.50;80.78;99799.84;5121214;28;20497;-63
2022/09/10 04:45:10;;;;;;;8.90;5.20;;;;;;;15.55;80.23;99797.44;5115041;28;20467;-63
2022/09/10 04:47:36;;;;;;;5.93;4.80;;;;;;;15.62;79.94;99798.38;5102875;28;20451;-63
2022/09/10 04:50:05;;;;;;;5.90;5.03;;;;;;;15.59;79.88;99805.00;5106049;28;20472;-64
2022/09/10 04:52:33;;;;;;;6.53;4.60;;;;;;;15.66;79.76;99798.84;5121221;28;20474;-64
2022/09/10 04:54:59;;;;;;;8.00;4.60;;;;;;;15.79;79.48;99808.00;5106229;28;20470;-63
2022/09/10 04:57:26;;;;;;;9.40;4.73;;;;;;;15.87;79.02;99806.25;5100263;28;20815;-64
2022/09/10 04:59:54;;;;;;;5.90;4.87;;;;;;;16.03;77.84;99808.75;5098488;28;20443;-64
2022/09/10 05:02:21;;;;;;;8.40;5.10;;;;;;;16.11;77.63;99799.69;5118411;28;20497;-64
2022/09/10 05:04:48;;;;;;;4.70;4.30;;;;;;;16.10;77.58;99804.28;5119898;28;20466;-64
2022/09/10 05:07:14;;;;;;;6.40;4.40;;;;;;;16.08;77.64;99806.31;5119890;28;20504;-65
2022/09/10 05:09:42;;;;;;;5.63;4.63;;;;;;;15.97;78.35;99804.94;5119822;28;20450;-64
2022/09/10 05:12:09;;;;;;;5.50;3.80;;;;;;;16.00;78.13;99817.19;5113035;28;20701;-65
2022/09/10 05:14:36;;;;;;;7.00;4.50;;;;;;;16.06;77.62;99808.38;5095231;28;21070;-65
2022/09/10 05:17:03;;;;;;;3.30;2.87;;;;;;;16.00;77.79;99807.28;5092233;28;20541;-63
2022/09/10 05:19:30;;;;;;;4.10;3.30;;;;;;;16.04;77.95;99809.56;5107270;28;20450;-64
2022/09/10 05:21:56;;;;;;;5.70;3.30;;;;;;;15.99;78.21;99808.28;5101350;28;20471;-64
2022/09/10 05:24:23;;;;;;;3.43;3.07;;;;;;;15.97;78.29;99810.34;5110229;28;20467;-64
2022/09/10 05:26:51;;;;;;;4.33;2.93;;;;;;;16.15;77.61;99809.94;5120036;28;20511;-64
2022/09/10 05:29:18;;;;;;;6.53;2.90;;;;;;;16.06;78.17;99813.78;5121829;28;20711;-65
2022/09/10 05:31:44;;;;;;;5.70;2.90;;;;;;;16.21;77.76;99816.44;5117541;28;20508;-64
2022/09/10 05:34:11;;;;;;;3.60;2.47;;;;;;;16.34;76.86;99811.22;5105665;28;20511;-64
2022/09/10 05:36:37;;;;;;;7.73;2.67;;;;;;;16.43;76.97;99809.25;5104427;28;20570;-64
2022/09/10 05:39:07;;;;;;;2.90;2.47;;;;;;;16.44;76.64;99810.06;5105401;28;20459;-66
2022/09/10 05:41:34;;;;;;;3.87;2.13;;;;;;;16.87;75.90;99808.31;5097272;28;20469;-65
2022/09/10 05:44:02;;;;;;;4.23;2.43;;;;;;;16.87;74.90;99813.72;5103696;28;20804;-65
2022/09/10 05:46:29;;;;;;;3.70;2.40;;;;;;;17.85;71.52;99815.72;5111697;28;20505;-64
2022/09/10 05:48:56;;;;;;;3.97;2.30;;;;;;;19.30;65.92;99818.31;5109578;28;20452;-65
2022/09/10 05:51:26;;;;;;;3.40;2.07;;;;;;;19.66;62.94;99814.34;5124000;28;20479;-65
2022/09/10 05:53:53;;;;;;;3.87;2.00;;;;;;;19.53;62.40;99812.47;5123371;28;20490;-65
2022/09/10 05:56:20;;;;;;;3.60;1.47;;;;;;;18.50;65.89;99810.03;5107058;28;20475;-64
2022/09/10 05:58:46;;;;;;;3.30;1.70;;;;;;;18.29;66.72;99802.88;5124156;28;20436;-64
2022/09/10 06:01:14;;;;;;;2.10;1.53;;;;;;;17.89;67.91;99811.63;5122732;28;20466;-64
2022/09/10 06:03:41;;;;;;;2.90;1.60;;;;;;;17.79;68.86;99811.94;5124461;28;20450;-64
2022/09/10 06:06:08;;;;;;;6.00;1.73;;;;;;;17.96;67.99;99808.94;5103043;28;20498;-64
2022/09/10 06:08:35;;;;;;;2.93;1.50;;;;;;;17.85;68.78;99813.84;5115848;28;20451;-64
2022/09/10 06:11:03;;;;;;;4.00;1.90;;;;;;;18.24;67.54;99815.16;5112277;28;20936;-64
2022/09/10 06:13:30;;;;;;;3.80;1.60;;;;;;;18.63;66.07;99810.91;5104492;28;20543;-64
2022/09/10 06:15:57;;;;;;;2.80;1.47;;;;;;;18.38;66.28;99797.09;5107564;28;20479;-63
2022/09/10 06:18:25;;;;;;;3.40;2.10;;;;;;;18.66;65.64;99806.94;5123663;28;20486;-64
2022/09/10 06:21:01;;;;;;;3.07;1.83;;;;;;;18.81;65.31;99802.19;5103974;28;20505;-64
2022/09/10 06:23:29;;;;;;;4.10;1.80;;;;;;;18.97;64.65;99805.56;5104020;28;20452;-64
2022/09/10 06:26:00;;;;;;;3.37;1.50;;;;;;;20.28;60.35;99810.22;5103382;28;20482;-63
2022/09/10 06:28:28;;;;;;;3.43;1.40;;;;;;;23.13;52.22;99808.78;5104523;28;20446;-63
2022/09/10 06:30:54;;;;;;;1.30;1.10;;;;;;;23.63;49.61;99813.00;5102965;28;20499;-64
2022/09/10 06:33:21;;;;;;;1.70;1.20;;;;;;;24.04;48.07;99822.13;5102084;28;20459;-63
2022/09/10 06:35:53;;;;;;;3.17;1.30;;;;;;;24.38;46.94;99830.50;5117856;28;20976;-64
2022/09/10 06:38:20;;;;;;;1.33;0.90;;;;;;;22.79;51.16;99826.69;5115741;28;20943;-63
2022/09/10 06:40:53;;;;;;;2.60;1.40;;;;;;;21.02;55.84;99818.84;5102750;28;20527;-63
2022/09/10 06:43:20;;;;;;;1.93;1.10;;;;;;;20.21;59.10;99828.44;5100393;28;20506;-63
2022/09/10 06:45:48;;;;;;;2.30;1.47;;;;;;;20.25;59.13;99829.66;5110643;28;20500;-64
2022/09/10 06:48:17;;;;;;;3.93;1.60;;;;;;;19.89;60.57;99830.16;5103133;28;20459;-63
2022/09/10 06:50:50;;;;;;;3.43;1.10;;;;;;;19.79;61.28;99830.63;5102673;28;20467;-63
2022/09/10 06:53:20;;;;;;;3.60;1.73;;;;;;;19.56;61.40;99821.03;5103903;28;20461;-63
2022/09/10 06:55:49;;;;;;;2.83;1.50;;;;;;;19.96;60.68;99824.72;5102884;28;21012;-63
2022/09/10 06:58:16;;;;;;;3.40;1.70;;;;;;;20.23;59.92;99826.31;5103961;28;20429;-63
2022/09/10 07:00:44;;;;;;;3.17;1.83;;;;;;;20.21;59.39;99828.44;5097007;28;20473;-62
2022/09/10 07:03:10;;;;;;;1.73;1.60;;;;;;;20.19;60.00;99827.81;5091655;28;20495;-63
2022/09/10 07:05:37;;;;;;;3.30;1.73;;;;;;;20.25;59.90;99829.66;5101433;28;20492;-63
2022/09/10 07:08:05;;;;;;;5.53;1.80;;;;;;;20.22;59.68;99829.25;5112788;28;20486;-63
2022/09/10 07:10:34;;;;;;;6.07;1.87;;;;;;;20.08;60.35;99829.28;5122824;28;20496;-63
2022/09/10 07:13:01;;;;;;;4.40;1.70;;;;;;;20.28;60.33;99829.22;5123624;28;20470;-63
2022/09/10 07:15:27;;;;;;;4.50;1.77;;;;;;;19.83;61.77;99837.28;5117245;28;20551;-63
2022/09/10 07:17:54;;;;;;;6.43;2.20;;;;;;;19.29;62.86;99833.75;5093565;28;20455;-63
2022/09/10 07:20:22;;;;;;;2.07;1.87;;;;;;;18.61;65.10;99834.63;5099744;28;20471;-63
2022/09/10 07:22:51;;;;;;;3.03;1.67;;;;;;;18.63;65.67;99832.56;5102872;28;20874;-63
2022/09/10 07:25:18;;;;;;;4.33;1.83;;;;;;;18.82;64.96;99838.28;5102490;28;20470;-63
2022/09/10 07:27:46;;;;;;;3.43;2.23;;;;;;;18.72;66.45;99832.38;5102973;28;20494;-63
2022/09/10 07:30:13;;;;;;;4.80;1.93;;;;;;;18.43;67.18;99837.88;5096325;28;20444;-63
2022/09/10 07:32:41;;;;;;;3.00;2.20;;;;;;;18.15;69.01;99839.84;5100516;28;20448;-63
2022/09/10 07:35:08;;;;;;;2.13;1.93;;;;;;;18.04;69.44;99839.38;5098238;28;20519;-63
2022/09/10 07:37:36;;;;;;;7.93;2.80;;;;;;;18.10;70.38;99839.63;5102529;28;20444;-63
2022/09/10 07:40:04;;;;;;;3.23;2.90;;;;;;;17.97;70.02;99833.09;5102514;28;20460;-63
2022/09/10 07:42:31;;;;;;;6.13;3.30;;;;;;;18.06;70.47;99850.00;5101578;28;20492;-63
2022/09/10 07:45:04;;;;;;;4.37;3.20;;;;;;;18.14;69.83;99849.00;5100851;28;20547;-64
2022/09/10 07:47:32;;;;;;;3.37;3.07;;;;;;;18.07;70.45;99851.66;5097809;28;20476;-63
2022/09/10 07:49:58;;;;;;;5.50;3.50;;;;;;;18.00;69.88;99848.94;5100067;28;20797;-62
2022/09/10 07:52:25;;;;;;;5.17;3.43;;;;;;;18.07;69.84;99857.06;5110194;28;20487;-62
2022/09/10 07:54:52;;;;;;;3.03;2.80;;;;;;;18.01;69.73;99853.28;5121028;28;20446;-63
2022/09/10 07:57:19;;;;;;;3.80;3.50;;;;;;;17.94;70.19;99857.84;5118358;28;20478;-63
2022/09/10 07:59:46;;;;;;;3.53;3.00;;;;;;;17.86;70.79;99861.53;5102454;28;21023;-63
2022/09/10 08:02:15;;;;;;;3.60;3.30;;;;;;;18.03;70.15;99853.09;5099219;28;20555;-62
2022/09/10 08:04:42;;;;;;;6.10;3.53;;;;;;;17.86;70.71;99864.25;5113558;28;20439;-62
2022/09/10 08:07:08;;;;;;;5.33;3.47;;;;;;;17.99;70.55;99863.47;5108483;28;20486;-61
2022/09/10 08:09:35;;;;;;;6.23;4.33;;;;;;;17.78;71.15;99861.66;5101569;28;20487;-62
2022/09/10 08:12:02;;;;;;;4.90;4.20;;;;;;;18.03;70.71;99872.03;5104316;28;20502;-62
2022/09/10 08:14:29;;;;;;;5.13;4.33;;;;;;;18.20;70.12;99875.25;5118391;28;20478;-62
2022/09/10 08:16:55;;;;;;;7.67;3.53;;;;;;;17.97;70.68;99881.78;5108592;28;20495;-62
2022/09/10 08:19:23;;;;;;;6.80;5.27;;;;;;;17.70;71.32;99880.72;5108264;28;20452;-64
2022/09/10 08:21:50;;;;;;;6.73;4.40;;;;;;;17.88;71.17;99885.69;5100952;28;20483;-62
2022/09/10 08:24:17;;;;;;;5.10;4.10;;;;;;;18.04;70.96;99888.06;5102298;28;20451;-62
2022/09/10 08:26:44;;;;;;;6.60;3.73;;;;;;;18.02;70.81;99886.63;5103624;28;20479;-62
2022/09/10 08:29:10;;;;;;;4.73;3.77;;;;;;;17.83;71.38;99888.94;5122955;28;20459;-61
2022/09/10 08:31:37;;;;;;;6.23;4.20;;;;;;;18.14;70.53;99893.13;5121514;28;20475;-61
2022/09/10 08:34:07;;;;;;;7.77;5.10;;;;;;;17.86;71.22;99891.28;5100743;28;20490;-62
2022/09/10 08:36:35;;;;;;;4.90;3.60;;;;;;;17.90;71.40;99891.72;5098283;28;20517;-62
2022/09/10 08:39:01;;;;;;;4.70;4.17;;;;;;;18.56;69.73;99895.84;5106258;28;20439;-62
2022/09/10 08:41:41;;;;;;;5.60;3.93;;;;;;;18.92;67.84;99889.31;5121776;28;20486;-64
2022/09/10 08:44:14;;;;;;;5.23;4.20;;;;;;;19.55;65.80;99891.72;5111304;28;20503;-62
2022/09/10 08:46:44;;;;;;;4.90;3.60;;;;;;;20.25;63.64;99891.25;5095517;28;20534;-62
2022/09/10 08:49:14;;;;;;;6.27;3.77;;;;;;;20.84;61.29;99890.22;5101556;28;20462;-62
2022/09/10 08:51:44;;;;;;;6.43;3.77;;;;;;;20.57;61.74;99896.78;5101625;28;20472;-62
2022/09/10 08:54:14;;;;;;;5.80;4.17;;;;;;;20.98;60.35;99901.03;5100132;28;20433;-62
2022/09/10 08:56:41;;;;;;;6.03;4.40;;;;;;;20.97;60.47;99902.91;5108779;28;21005;-62
2022/09/10 08:59:17;;;;;;;5.20;4.70;;;;;;;20.67;61.04;99903.44;5101561;28;20420;-62
2022/09/10 09:01:49;;;;;;;5.53;4.50;;;;;;;20.45;61.01;99904.75;5094896;28;20502;-62
2022/09/10 09:04:18;;;;;;;7.20;5.03;;;;;;;20.59;60.96;99905.53;5097306;28;20447;-62
2022/09/10 09:06:50;;;;;;;8.13;4.90;;;;;;;20.19;62.46;99902.94;5102030;28;20514;-62
2022/09/10 09:09:17;;;;;;;5.60;5.10;;;;;;;19.86;63.27;99904.69;5120505;28;20449;-62
2022/09/10 09:11:49;;;;;;;5.20;4.47;;;;;;;19.63;64.65;99906.94;5118981;28;20508;-62
2022/09/10 09:14:24;;;;;;;8.37;5.60;;;;;;;19.37;65.20;99909.44;5097789;28;20517;-62
2022/09/10 09:17:18;;;;;;;8.67;6.00;;;;;;;18.89;66.97;99903.31;5110566;28;20462;-62
2022/09/10 09:19:50;;;;;;;5.37;4.87;;;;;;;18.96;67.33;99912.28;5089852;28;20486;-63
2022/09/10 09:22:20;;;;;;;6.50;5.20;;;;;;;18.80;68.03;99916.13;5074889;28;20477;-62
2022/09/10 09:24:55;;;;;;;6.40;5.53;;;;;;;18.85;68.24;99913.69;5104783;28;20440;-63
2022/09/10 09:27:22;;;;;;;7.10;6.20;;;;;;;19.02;68.26;99921.47;5075328;28;20483;-63
2022/09/10 09:29:53;;;;;;;6.87;6.17;;;;;;;19.17;67.62;99914.00;5081026;28;20437;-63
2022/09/10 09:32:21;;;;;;;6.53;5.30;;;;;;;19.62;65.94;99919.69;5112820;28;20511;-63
2022/09/10 09:34:50;;;;;;;5.27;4.87;;;;;;;20.04;64.63;99920.31;5105482;28;20805;-62
2022/09/10 09:37:21;;;;;;;5.97;5.17;;;;;;;20.56;62.75;99922.28;5099478;28;20818;-63
2022/09/10 09:39:53;;;;;;;5.77;5.17;;;;;;;20.60;61.47;99921.63;5106748;28;20447;-63
2022/09/10 09:42:25;;;;;;;5.60;4.90;;;;;;;20.78;60.54;99925.56;5119952;28;20486;-63
2022/09/10 09:44:56;;;;;;;6.87;6.10;;;;;;;20.82;60.75;99921.38;5120567;28;20446;-63
2022/09/10 09:47:23;;;;;;;5.60;5.10;;;;;;;20.54;61.89;99924.41;5098131;28;20518;-62
2022/09/10 09:49:49;;;;;;;5.20;4.70;;;;;;;20.73;60.98;99918.09;5097637;28;20438;-63
2022/09/10 09:52:22;;;;;;;6.27;5.67;;;;;;;20.45;61.35;99919.19;5104322;28;20485;-63
2022/09/10 09:54:51;;;;;;;4.63;4.23;;;;;;;20.44;61.53;99917.50;5099651;28;20970;-63
2022/09/10 09:57:19;;;;;;;5.00;4.50;;;;;;;20.59;60.74;99919.97;5099844;28;20503;-63
2022/09/10 09:59:47;;;;;;;5.30;4.80;;;;;;;20.14;62.68;99917.19;5100514;28;20511;-63
2022/09/10 10:02:16;;;;;;;7.00;5.70;;;;;;;20.20;62.21;99915.50;5098713;28;20558;-63
2022/09/10 10:04:54;;;;;;;5.47;4.97;;;;;;;20.28;62.76;99910.66;5096583;28;20475;-63
2022/09/10 10:07:26;;;;;;;5.50;5.00;;;;;;;20.41;61.90;99912.50;5098293;28;20532;-63
2022/09/10 10:09:54;;;;;;;4.57;4.27;;;;;;;20.79;61.44;99916.38;5107280;28;20488;-63
2022/09/10 10:12:22;;;;;;;4.70;4.30;;;;;;;20.51;61.95;99907.47;5101361;28;20481;-63
2022/09/10 10:14:48;;;;;;;5.73;4.37;;;;;;;20.77;60.78;99910.34;5119408;28;20436;-63
2022/09/10 10:17:36;;;;;;;4.63;4.20;;;;;;;21.02;59.02;99905.81;5101286;28;20480;-63
2022/09/10 10:20:10;;;;;;;4.47;4.07;;;;;;;20.83;59.88;99906.72;5102032;28;20452;-63
2022/09/10 10:22:39;;;;;;;4.27;3.87;;;;;;;20.74;60.37;99908.88;5102076;28;20452;-62
2022/09/10 10:25:31;;;;;;;4.60;4.20;;;;;;;20.59;60.47;99908.25;5101748;28;20436;-63
2022/09/10 10:27:57;;;;;;;4.40;4.00;;;;;;;20.53;60.94;99907.25;5094920;28;20476;-64
2022/09/10 10:30:27;;;;;;;4.73;4.33;;;;;;;20.60;61.12;99913.47;5102239;28;21000;-63
2022/09/10 10:32:55;;;;;;;4.70;4.20;;;;;;;20.62;60.25;99907.88;5122417;28;20461;-63
2022/09/10 10:35:29;;;;;;;4.50;4.10;;;;;;;20.83;60.85;99896.72;5122067;28;20436;-63
2022/09/10 10:38:29;;;;;;;4.07;3.67;;;;;;;21.39;57.65;99897.84;5103888;28;20479;-63
2022/09/10 10:41:32;;;;;;;3.47;3.27;;;;;;;21.23;57.64;99893.78;5074834;28;20469;-63
2022/09/10 10:44:11;;;;;;;3.20;3.00;;;;;;;21.77;56.95;99893.41;5120293;28;20558;-64
2022/09/10 10:46:41;;;;;;;3.77;3.40;;;;;;;22.71;52.99;99896.78;5101615;28;20476;-63
2022/09/10 10:49:18;;;;;;;3.07;2.60;;;;;;;23.53;51.10;99902.81;5102337;28;20463;-64
2022/09/10 10:51:50;;;;;;;5.43;2.63;;;;;;;23.96;48.53;99893.50;5117583;28;20499;-63
2022/09/10 10:54:36;;;;;;;2.80;2.50;;;;;;;23.76;50.31;99891.06;5108879;28;20738;-63
2022/09/10 10:57:10;;;;;;;2.70;2.50;;;;;;;23.58;51.27;99884.66;5091827;28;20786;-63
2022/09/10 10:59:46;;;;;;;4.27;2.83;;;;;;;23.37;50.13;99893.41;5120706;28;20447;-63
2022/09/10 11:02:15;;;;;;;3.30;3.03;;;;;;;22.48;52.38;99896.66;5121281;28;20476;-64
2022/09/10 11:04:46;;;;;;;3.20;2.67;;;;;;;22.41;53.26;99887.72;5123555;28;20572;-63
2022/09/10 11:07:17;;;;;;;3.33;2.50;;;;;;;22.34;52.77;99882.34;5113801;28;20534;-64
2022/09/10 11:09:48;;;;;;;2.77;2.57;;;;;;;21.92;53.89;99882.16;5121357;28;20440;-63
2022/09/10 11:12:18;;;;;;;3.33;2.43;;;;;;;21.69;55.36;99889.06;5102070;28;20497;-63
2022/09/10 11:14:49;;;;;;;3.30;3.00;;;;;;;21.24;56.40;99886.44;5103601;28;20927;-63
2022/09/10 11:17:19;;;;;;;2.77;2.47;;;;;;;20.96;57.98;99875.97;5113206;28;20502;-63
2022/09/10 11:19:59;;;;;;;4.30;2.80;;;;;;;21.28;57.17;99879.50;5102836;28;20453;-63
2022/09/10 11:22:29;;;;;;;5.53;2.50;;;;;;;21.52;56.84;99879.78;5109977;28;20464;-63
2022/09/10 11:25:03;;;;;;;3.10;2.80;;;;;;;21.80;55.67;99877.44;5123641;28;20431;-63
2022/09/10 11:27:32;;;;;;;4.07;2.43;;;;;;;21.83;55.57;99883.50;5122728;28;20508;-63
2022/09/10 11:30:05;;;;;;;2.77;2.57;;;;;;;21.87;55.04;99879.25;5121846;28;20490;-63
2022/09/10 11:32:37;;;;;;;4.27;3.80;;;;;;;21.98;54.11;99875.81;5110919;28;20481;-63
2022/09/10 11:35:12;;;;;;;3.23;2.90;;;;;;;22.45;55.02;99886.25;5098324;28;20452;-63
2022/09/10 11:37:50;;;;;;;3.97;3.03;;;;;;;22.26;53.72;99882.66;5101439;28;20487;-63
2022/09/10 11:40:24;;;;;;;4.40;3.00;;;;;;;22.45;53.39;99880.78;5102166;28;20536;-63
2022/09/10 11:42:53;;;;;;;2.87;2.57;;;;;;;22.93;53.03;99877.22;5098730;28;20915;-63
2022/09/10 11:45:24;;;;;;;3.57;2.63;;;;;;;22.73;52.45;99877.50;5113617;28;20451;-63